sensor_id;sensor_type;location;lat;lon;timestamp;pressure;altitude;pressure_sealevel;temperature;humidity
54900;BME280;40801;41.924;25.562;2023-03-01T00:01:48;100319.44;;;7.82;82.03
54900;BME280;40801;41.924;25.562;2023-03-01T00:04:14;100321.53;;;7.75;82.60
54900;BME280;40801;41.924;25.562;2023-03-01T00:06:40;100313.25;;;7.82;81.93
54900;BME280;40801;41.924;25.562;2023-03-01T00:09:07;100302.19;;;7.78;82.56
54900;BME280;40801;41.924;25.562;2023-03-01T00:11:33;100316.16;;;7.80;82.70
54900;BME280;40801;41.924;25.562;2023-03-01T00:14:00;100315.09;;;7.76;82.60
54900;BME280;40801;41.924;25.562;2023-03-01T00:16:35;100324.28;;;7.85;82.12
54900;BME280;40801;41.924;25.562;2023-03-01T00:19:02;100318.34;;;7.83;82.46
54900;BME280;40801;41.924;25.562;2023-03-01T00:21:27;100307.00;;;7.71;82.48
54900;BME280;40801;41.924;25.562;2023-03-01T00:23:53;100321.25;;;7.76;82.21
54900;BME280;40801;41.924;25.562;2023-03-01T00:26:23;100315.94;;;7.82;82.36
54900;BME280;40801;41.924;25.562;2023-03-01T00:28:50;100312.41;;;7.76;82.88
54900;BME280;40801;41.924;25.562;2023-03-01T00:31:18;100314.53;;;7.69;82.72
54900;BME280;40801;41.924;25.562;2023-03-01T00:33:45;100317.44;;;7.57;83.29
54900;BME280;40801;41.924;25.562;2023-03-01T00:36:12;100315.06;;;7.71;82.59
54900;BME280;40801;41.924;25.562;2023-03-01T00:38:40;100317.50;;;7.77;82.88
54900;BME280;40801;41.924;25.562;2023-03-01T00:41:09;100310.78;;;7.75;82.62
54900;BME280;40801;41.924;25.562;2023-03-01T00:43:34;100305.41;;;7.75;82.80
54900;BME280;40801;41.924;25.562;2023-03-01T00:46:23;100306.50;;;7.79;82.53
54900;BME280;40801;41.924;25.562;2023-03-01T00:48:49;100300.91;;;7.81;82.94
54900;BME280;40801;41.924;25.562;2023-03-01T00:51:17;100298.16;;;7.70;82.66
54900;BME280;40801;41.924;25.562;2023-03-01T00:53:44;100292.50;;;7.67;82.87
54900;BME280;40801;41.924;25.562;2023-03-01T00:56:11;100294.94;;;7.73;82.73
54900;BME280;40801;41.924;25.562;2023-03-01T00:58:37;100291.66;;;7.56;83.04
54900;BME280;40801;41.924;25.562;2023-03-01T01:01:18;100295.47;;;7.65;82.73
54900;BME280;40801;41.924;25.562;2023-03-01T01:03:50;100285.22;;;7.57;83.15
54900;BME280;40801;41.924;25.562;2023-03-01T01:06:21;100278.28;;;7.71;81.67
54900;BME280;40801;41.924;25.562;2023-03-01T01:08:47;100276.13;;;7.68;82.76
54900;BME280;40801;41.924;25.562;2023-03-01T01:11:13;100276.69;;;7.70;82.42
54900;BME280;40801;41.924;25.562;2023-03-01T01:13:40;100271.84;;;7.67;82.72
54900;BME280;40801;41.924;25.562;2023-03-01T01:16:06;100278.28;;;7.66;82.76
54900;BME280;40801;41.924;25.562;2023-03-01T01:18:32;100268.09;;;7.68;82.05
54900;BME280;40801;41.924;25.562;2023-03-01T01:20:57;100265.13;;;7.70;81.69
54900;BME280;40801;41.924;25.562;2023-03-01T01:23:23;100270.47;;;7.55;82.83
54900;BME280;40801;41.924;25.562;2023-03-01T01:25:48;100264.84;;;7.61;82.06
54900;BME280;40801;41.924;25.562;2023-03-01T01:28:14;100262.09;;;7.51;82.74
54900;BME280;40801;41.924;25.562;2023-03-01T01:30:39;100266.97;;;7.54;83.34
54900;BME280;40801;41.924;25.562;2023-03-01T01:33:04;100264.03;;;7.56;83.06
54900;BME280;40801;41.924;25.562;2023-03-01T01:35:30;100265.59;;;7.52;82.61
54900;BME280;40801;41.924;25.562;2023-03-01T01:37:55;100263.94;;;7.40;83.42
54900;BME280;40801;41.924;25.562;2023-03-01T01:40:20;100266.38;;;7.42;83.72
54900;BME280;40801;41.924;25.562;2023-03-01T01:42:46;100272.28;;;7.44;83.56
54900;BME280;40801;41.924;25.562;2023-03-01T01:47:52;100280.63;;;7.47;82.85
54900;BME280;40801;41.924;25.562;2023-03-01T01:50:19;100272.81;;;7.41;83.47
54900;BME280;40801;41.924;25.562;2023-03-01T01:52:44;100279.53;;;7.43;83.17
54900;BME280;40801;41.924;25.562;2023-03-01T01:55:14;100273.91;;;7.50;83.25
54900;BME280;40801;41.924;25.562;2023-03-01T01:58:00;100276.00;;;7.33;83.77
54900;BME280;40801;41.924;25.562;2023-03-01T02:00:28;100274.69;;;7.40;84.31
54900;BME280;40801;41.924;25.562;2023-03-01T02:03:04;100272.28;;;7.44;83.77
54900;BME280;40801;41.924;25.562;2023-03-01T02:08:18;100273.66;;;7.52;83.44
54900;BME280;40801;41.924;25.562;2023-03-01T02:10:45;100275.03;;;7.59;82.63
54900;BME280;40801;41.924;25.562;2023-03-01T02:13:11;100271.28;;;7.55;82.53
54900;BME280;40801;41.924;25.562;2023-03-01T02:15:38;100266.94;;;7.49;83.35
54900;BME280;40801;41.924;25.562;2023-03-01T02:18:05;100259.47;;;7.56;82.90
54900;BME280;40801;41.924;25.562;2023-03-01T02:20:44;100260.81;;;7.59;82.84
54900;BME280;40801;41.924;25.562;2023-03-01T02:23:11;100265.53;;;7.36;83.30
54900;BME280;40801;41.924;25.562;2023-03-01T02:28:37;100254.81;;;7.41;84.19
54900;BME280;40801;41.924;25.562;2023-03-01T02:31:09;100257.53;;;7.52;83.60
54900;BME280;40801;41.924;25.562;2023-03-01T02:33:54;100254.56;;;7.43;83.40
54900;BME280;40801;41.924;25.562;2023-03-01T02:36:24;100254.50;;;7.28;84.36
54900;BME280;40801;41.924;25.562;2023-03-01T02:38:53;100249.19;;;7.38;84.55
54900;BME280;40801;41.924;25.562;2023-03-01T02:41:20;100242.50;;;7.45;83.44
54900;BME280;40801;41.924;25.562;2023-03-01T02:43:47;100244.38;;;7.50;83.84
54900;BME280;40801;41.924;25.562;2023-03-01T02:46:21;100244.38;;;7.50;83.96
54900;BME280;40801;41.924;25.562;2023-03-01T02:48:55;100242.47;;;7.40;84.49
54900;BME280;40801;41.924;25.562;2023-03-01T02:54:21;100247.03;;;7.40;83.81
54900;BME280;40801;41.924;25.562;2023-03-01T02:56:49;100246.41;;;7.23;84.63
54900;BME280;40801;41.924;25.562;2023-03-01T02:59:18;100246.75;;;7.31;84.55
54900;BME280;40801;41.924;25.562;2023-03-01T03:01:45;100251.31;;;7.36;84.93
54900;BME280;40801;41.924;25.562;2023-03-01T03:04:14;100249.16;;;7.33;84.68
54900;BME280;40801;41.924;25.562;2023-03-01T03:06:45;100252.16;;;7.46;83.79
54900;BME280;40801;41.924;25.562;2023-03-01T03:09:11;100243.09;;;7.53;83.62
54900;BME280;40801;41.924;25.562;2023-03-01T03:11:37;100243.31;;;7.51;83.42
54900;BME280;40801;41.924;25.562;2023-03-01T03:14:04;100238.75;;;7.46;83.52
54900;BME280;40801;41.924;25.562;2023-03-01T03:16:30;100236.66;;;7.59;83.04
54900;BME280;40801;41.924;25.562;2023-03-01T03:18:55;100241.41;;;7.36;84.07
54900;BME280;40801;41.924;25.562;2023-03-01T03:21:33;100239.28;;;7.49;84.42
54900;BME280;40801;41.924;25.562;2023-03-01T03:23:59;100229.13;;;7.56;82.86
54900;BME280;40801;41.924;25.562;2023-03-01T03:26:24;100229.09;;;7.51;83.89
54900;BME280;40801;41.924;25.562;2023-03-01T03:28:50;100225.59;;;7.45;84.48
54900;BME280;40801;41.924;25.562;2023-03-01T03:31:15;100218.41;;;7.61;83.00
54900;BME280;40801;41.924;25.562;2023-03-01T03:33:40;100212.78;;;7.67;82.79
54900;BME280;40801;41.924;25.562;2023-03-01T03:36:06;100217.34;;;7.62;83.72
54900;BME280;40801;41.924;25.562;2023-03-01T03:38:32;100225.66;;;7.60;83.43
54900;BME280;40801;41.924;25.562;2023-03-01T03:41:05;100224.84;;;7.55;83.46
54900;BME280;40801;41.924;25.562;2023-03-01T03:43:34;100222.97;;;7.60;83.75
54900;BME280;40801;41.924;25.562;2023-03-01T03:46:18;100214.38;;;7.68;82.90
54900;BME280;40801;41.924;25.562;2023-03-01T03:48:45;100211.44;;;7.75;83.11
54900;BME280;40801;41.924;25.562;2023-03-01T03:51:12;100207.66;;;7.61;84.07
54900;BME280;40801;41.924;25.562;2023-03-01T03:53:38;100220.81;;;7.57;83.85
54900;BME280;40801;41.924;25.562;2023-03-01T03:56:04;100215.47;;;7.67;83.13
54900;BME280;40801;41.924;25.562;2023-03-01T03:58:29;100221.09;;;7.56;83.27
54900;BME280;40801;41.924;25.562;2023-03-01T04:00:56;100213.56;;;7.53;84.03
54900;BME280;40801;41.924;25.562;2023-03-01T04:03:24;100202.31;;;7.61;83.74
54900;BME280;40801;41.924;25.562;2023-03-01T04:05:51;100200.41;;;7.61;83.56
54900;BME280;40801;41.924;25.562;2023-03-01T04:08:18;100199.63;;;7.66;83.24
54900;BME280;40801;41.924;25.562;2023-03-01T04:10:47;100204.44;;;7.64;83.29
54900;BME280;40801;41.924;25.562;2023-03-01T04:13:16;100198.28;;;7.68;82.54
54900;BME280;40801;41.924;25.562;2023-03-01T04:15:42;100203.91;;;7.67;83.42
54900;BME280;40801;41.924;25.562;2023-03-01T04:18:15;100204.19;;;7.65;83.97
54900;BME280;40801;41.924;25.562;2023-03-01T04:20:42;100200.69;;;7.60;83.58
54900;BME280;40801;41.924;25.562;2023-03-01T04:23:11;100204.19;;;7.60;83.06
54900;BME280;40801;41.924;25.562;2023-03-01T04:25:49;100206.34;;;7.63;83.43
54900;BME280;40801;41.924;25.562;2023-03-01T04:28:28;100216.75;;;7.50;84.28
54900;BME280;40801;41.924;25.562;2023-03-01T04:30:55;100221.59;;;7.53;83.84
54900;BME280;40801;41.924;25.562;2023-03-01T04:33:22;100226.66;;;7.44;84.05
54900;BME280;40801;41.924;25.562;2023-03-01T04:35:48;100232.09;;;7.54;84.31
54900;BME280;40801;41.924;25.562;2023-03-01T04:38:15;100227.81;;;7.63;83.58
54900;BME280;40801;41.924;25.562;2023-03-01T04:40:40;100220.22;;;7.50;84.57
54900;BME280;40801;41.924;25.562;2023-03-01T04:43:09;100216.53;;;7.56;83.75
54900;BME280;40801;41.924;25.562;2023-03-01T04:45:34;100216.53;;;7.61;83.35
54900;BME280;40801;41.924;25.562;2023-03-01T04:48:00;100215.72;;;7.66;83.23
54900;BME280;40801;41.924;25.562;2023-03-01T04:50:25;100226.72;;;7.64;82.86
54900;BME280;40801;41.924;25.562;2023-03-01T04:52:51;100232.34;;;7.58;82.97
54900;BME280;40801;41.924;25.562;2023-03-01T04:55:17;100221.91;;;7.61;83.24
54900;BME280;40801;41.924;25.562;2023-03-01T04:57:43;100224.84;;;7.55;83.55
54900;BME280;40801;41.924;25.562;2023-03-01T05:00:11;100222.66;;;7.52;83.61
54900;BME280;40801;41.924;25.562;2023-03-01T05:02:57;100224.47;;;7.31;85.02
54900;BME280;40801;41.924;25.562;2023-03-01T05:07:52;100233.88;;;7.38;84.40
54900;BME280;40801;41.924;25.562;2023-03-01T05:10:18;100230.38;;;7.33;84.59
54900;BME280;40801;41.924;25.562;2023-03-01T05:12:43;100233.63;;;7.45;84.45
54900;BME280;40801;41.924;25.562;2023-03-01T05:15:09;100233.09;;;7.48;84.16
54900;BME280;40801;41.924;25.562;2023-03-01T05:17:35;100230.41;;;7.43;nan
54900;BME280;40801;41.924;25.562;2023-03-01T05:20:00;100227.47;;;7.50;83.73
54900;BME280;40801;41.924;25.562;2023-03-01T05:22:26;100235.03;;;7.58;84.00
54900;BME280;40801;41.924;25.562;2023-03-01T05:24:52;100228.59;;;7.59;83.55
54900;BME280;40801;41.924;25.562;2023-03-01T05:27:19;100227.25;;;7.61;83.50
54900;BME280;40801;41.924;25.562;2023-03-01T05:29:47;100227.81;;;7.63;83.13
54900;BME280;40801;41.924;25.562;2023-03-01T05:32:13;100229.16;;;7.61;83.44
54900;BME280;40801;41.924;25.562;2023-03-01T05:34:41;100229.41;;;7.59;83.77
54900;BME280;40801;41.924;25.562;2023-03-01T05:37:06;100225.91;;;7.59;83.41
54900;BME280;40801;41.924;25.562;2023-03-01T05:39:33;100231.56;;;7.62;83.05
54900;BME280;40801;41.924;25.562;2023-03-01T05:42:00;100239.59;;;7.57;82.94
54900;BME280;40801;41.924;25.562;2023-03-01T05:44:27;100238.28;;;7.60;83.23
54900;BME280;40801;41.924;25.562;2023-03-01T05:46:53;100236.84;;;7.42;84.21
54900;BME280;40801;41.924;25.562;2023-03-01T05:49:19;100238.97;;;7.30;84.94
54900;BME280;40801;41.924;25.562;2023-03-01T05:51:49;100244.56;;;7.23;85.42
54900;BME280;40801;41.924;25.562;2023-03-01T05:54:15;100246.22;;;7.39;84.22
54900;BME280;40801;41.924;25.562;2023-03-01T05:56:41;100242.19;;;7.32;84.30
54900;BME280;40801;41.924;25.562;2023-03-01T05:59:06;100241.38;;;7.31;84.71
54900;BME280;40801;41.924;25.562;2023-03-01T06:01:33;100247.84;;;7.40;84.47
54900;BME280;40801;41.924;25.562;2023-03-01T06:03:59;100239.47;;;7.27;85.11
54900;BME280;40801;41.924;25.562;2023-03-01T06:06:24;100240.84;;;7.29;84.71
54900;BME280;40801;41.924;25.562;2023-03-01T06:08:51;100230.91;;;7.25;85.41
54900;BME280;40801;41.924;25.562;2023-03-01T06:11:17;100243.72;;;7.23;84.92
54900;BME280;40801;41.924;25.562;2023-03-01T06:13:43;100253.47;;;7.34;85.17
54900;BME280;40801;41.924;25.562;2023-03-01T06:16:09;100246.47;;;7.33;84.98
54900;BME280;40801;41.924;25.562;2023-03-01T06:18:36;100247.28;;;7.28;85.21
54900;BME280;40801;41.924;25.562;2023-03-01T06:21:02;100252.31;;;7.20;85.67
54900;BME280;40801;41.924;25.562;2023-03-01T06:23:27;100255.63;;;7.37;85.11
54900;BME280;40801;41.924;25.562;2023-03-01T06:25:53;100252.38;;;7.35;85.52
54900;BME280;40801;41.924;25.562;2023-03-01T06:28:18;100258.84;;;7.44;84.94
54900;BME280;40801;41.924;25.562;2023-03-01T06:30:44;100264.28;;;7.54;84.77
54900;BME280;40801;41.924;25.562;2023-03-01T06:33:09;100253.75;;;7.37;84.79
54900;BME280;40801;41.924;25.562;2023-03-01T06:35:35;100260.22;;;7.46;85.26
54900;BME280;40801;41.924;25.562;2023-03-01T06:38:02;100263.97;;;7.45;85.09
54900;BME280;40801;41.924;25.562;2023-03-01T06:40:28;100255.91;;;7.40;85.04
54900;BME280;40801;41.924;25.562;2023-03-01T06:42:54;100256.19;;;7.49;84.55
54900;BME280;40801;41.924;25.562;2023-03-01T06:45:20;100262.63;;;7.43;85.27
54900;BME280;40801;41.924;25.562;2023-03-01T06:47:46;100262.03;;;7.31;86.00
54900;BME280;40801;41.924;25.562;2023-03-01T06:50:12;100260.44;;;7.35;85.74
54900;BME280;40801;41.924;25.562;2023-03-01T06:52:38;100259.66;;;7.44;85.33
54900;BME280;40801;41.924;25.562;2023-03-01T06:55:04;100257.50;;;7.41;85.58
54900;BME280;40801;41.924;25.562;2023-03-01T06:57:30;100261.06;;;7.52;85.54
54900;BME280;40801;41.924;25.562;2023-03-01T06:59:55;100260.75;;;7.49;85.72
54900;BME280;40801;41.924;25.562;2023-03-01T07:02:21;100271.81;;;7.57;84.55
54900;BME280;40801;41.924;25.562;2023-03-01T07:04:48;100267.72;;;7.50;84.70
54900;BME280;40801;41.924;25.562;2023-03-01T07:07:14;100268.03;;;7.53;84.79
54900;BME280;40801;41.924;25.562;2023-03-01T07:09:39;100268.88;;;7.59;84.49
54900;BME280;40801;41.924;25.562;2023-03-01T07:12:05;100266.72;;;7.66;84.36
54900;BME280;40801;41.924;25.562;2023-03-01T07:14:30;100260.84;;;7.69;84.36
54900;BME280;40801;41.924;25.562;2023-03-01T07:16:56;100271.03;;;7.62;84.79
54900;BME280;40801;41.924;25.562;2023-03-01T07:19:22;100268.88;;;7.59;84.63
54900;BME280;40801;41.924;25.562;2023-03-01T07:21:48;100266.97;;;7.54;84.93
54900;BME280;40801;41.924;25.562;2023-03-01T07:24:14;100270.47;;;7.55;84.82
54900;BME280;40801;41.924;25.562;2023-03-01T07:26:39;100265.09;;;7.60;84.75
54900;BME280;40801;41.924;25.562;2023-03-01T07:29:06;100262.16;;;7.66;85.19
54900;BME280;40801;41.924;25.562;2023-03-01T07:31:32;100266.19;;;7.69;85.01
54900;BME280;40801;41.924;25.562;2023-03-01T07:33:57;100259.78;;;7.80;84.67
54900;BME280;40801;41.924;25.562;2023-03-01T07:36:23;100250.38;;;7.77;84.60
54900;BME280;40801;41.924;25.562;2023-03-01T07:38:49;100250.69;;;7.81;84.26
54900;BME280;40801;41.924;25.562;2023-03-01T07:41:14;100241.22;;;7.68;84.87
54900;BME280;40801;41.924;25.562;2023-03-01T07:43:40;100242.28;;;7.57;84.92
54900;BME280;40801;41.924;25.562;2023-03-01T07:46:06;100236.16;;;7.77;83.77
54900;BME280;40801;41.924;25.562;2023-03-01T07:48:32;100241.81;;;7.81;84.03
54900;BME280;40801;41.924;25.562;2023-03-01T07:51:02;100239.94;;;7.81;84.75
54900;BME280;40801;41.924;25.562;2023-03-01T07:53:28;100235.94;;;7.89;84.31
54900;BME280;40801;41.924;25.562;2023-03-01T07:56:06;100239.69;;;7.83;84.50
54900;BME280;40801;41.924;25.562;2023-03-01T07:58:36;100238.88;;;7.87;84.35
54900;BME280;40801;41.924;25.562;2023-03-01T08:01:04;100236.69;;;7.79;85.16
54900;BME280;40801;41.924;25.562;2023-03-01T08:03:29;100237.53;;;7.90;84.03
54900;BME280;40801;41.924;25.562;2023-03-01T08:05:55;100237.00;;;7.83;84.17
54900;BME280;40801;41.924;25.562;2023-03-01T08:08:20;100238.03;;;7.71;84.78
54900;BME280;40801;41.924;25.562;2023-03-01T08:10:46;100235.59;;;7.65;85.18
54900;BME280;40801;41.924;25.562;2023-03-01T08:13:11;100243.13;;;7.78;84.93
54900;BME280;40801;41.924;25.562;2023-03-01T08:15:36;100239.88;;;7.66;84.91
54900;BME280;40801;41.924;25.562;2023-03-01T08:18:02;100233.44;;;7.67;85.46
54900;BME280;40801;41.924;25.562;2023-03-01T08:20:27;100230.50;;;7.78;84.64
54900;BME280;40801;41.924;25.562;2023-03-01T08:22:53;100239.91;;;7.71;84.63
54900;BME280;40801;41.924;25.562;2023-03-01T08:25:18;100237.25;;;7.81;84.66
54900;BME280;40801;41.924;25.562;2023-03-01T08:27:43;100235.34;;;7.71;85.76
54900;BME280;40801;41.924;25.562;2023-03-01T08:30:09;100242.38;;;7.83;85.37
54900;BME280;40801;41.924;25.562;2023-03-01T08:32:36;100240.50;;;7.88;84.48
54900;BME280;40801;41.924;25.562;2023-03-01T08:35:02;100246.34;;;7.80;85.09
54900;BME280;40801;41.924;25.562;2023-03-01T08:37:28;100241.81;;;7.81;85.08
54900;BME280;40801;41.924;25.562;2023-03-01T08:39:56;100238.34;;;7.95;84.20
54900;BME280;40801;41.924;25.562;2023-03-01T08:42:21;100239.44;;;7.99;84.37
54900;BME280;40801;41.924;25.562;2023-03-01T08:44:46;100228.94;;;7.98;84.39
54900;BME280;40801;41.924;25.562;2023-03-01T08:47:12;100235.13;;;8.08;84.20
54900;BME280;40801;41.924;25.562;2023-03-01T08:49:37;100238.09;;;8.07;83.64
54900;BME280;40801;41.924;25.562;2023-03-01T08:52:03;100240.53;;;8.14;83.52
54900;BME280;40801;41.924;25.562;2023-03-01T08:54:28;100235.41;;;8.02;83.53
54900;BME280;40801;41.924;25.562;2023-03-01T08:56:54;100240.25;;;8.10;84.16
54900;BME280;40801;41.924;25.562;2023-03-01T08:59:19;100231.66;;;8.23;82.56
54900;BME280;40801;41.924;25.562;2023-03-01T09:01:45;100233.50;;;8.02;83.41
54900;BME280;40801;41.924;25.562;2023-03-01T09:04:11;100234.31;;;8.03;83.33
54900;BME280;40801;41.924;25.562;2023-03-01T09:06:37;100233.25;;;7.89;84.10
54900;BME280;40801;41.924;25.562;2023-03-01T09:09:04;100238.88;;;7.97;83.92
54900;BME280;40801;41.924;25.562;2023-03-01T09:11:30;100233.78;;;8.06;83.55
54900;BME280;40801;41.924;25.562;2023-03-01T09:13:55;100237.81;;;8.03;83.90
54900;BME280;40801;41.924;25.562;2023-03-01T09:16:22;100231.38;;;8.04;83.62
54900;BME280;40801;41.924;25.562;2023-03-01T09:18:54;100240.75;;;7.97;84.19
54900;BME280;40801;41.924;25.562;2023-03-01T09:21:22;100244.53;;;8.06;83.97
54900;BME280;40801;41.924;25.562;2023-03-01T09:23:48;100241.31;;;8.09;83.06
54900;BME280;40801;41.924;25.562;2023-03-01T09:26:19;100241.88;;;8.11;82.86
54900;BME280;40801;41.924;25.562;2023-03-01T09:28:46;100242.94;;;8.10;83.19
54900;BME280;40801;41.924;25.562;2023-03-01T09:31:13;100247.50;;;8.15;83.32
54900;BME280;40801;41.924;25.562;2023-03-01T09:33:39;100246.19;;;8.17;83.10
54900;BME280;40801;41.924;25.562;2023-03-01T09:36:07;100251.53;;;8.17;83.45
54900;BME280;40801;41.924;25.562;2023-03-01T09:38:33;100257.69;;;7.97;83.83
54900;BME280;40801;41.924;25.562;2023-03-01T09:41:00;100253.41;;;8.06;83.48
54900;BME280;40801;41.924;25.562;2023-03-01T09:46:10;100249.09;;;7.90;83.81
54900;BME280;40801;41.924;25.562;2023-03-01T09:48:43;100246.69;;;7.99;83.60
54900;BME280;40801;41.924;25.562;2023-03-01T09:51:16;100244.25;;;7.97;83.15
54900;BME280;40801;41.924;25.562;2023-03-01T09:53:43;100247.47;;;7.89;83.87
54900;BME280;40801;41.924;25.562;2023-03-01T09:56:27;100249.56;;;7.72;83.47
54900;BME280;40801;41.924;25.562;2023-03-01T10:04:49;100233.78;;;7.81;83.73
54900;BME280;40801;41.924;25.562;2023-03-01T10:07:27;100230.56;;;7.99;83.74
54900;BME280;40801;41.924;25.562;2023-03-01T10:09:55;100229.22;;;7.86;83.26
54900;BME280;40801;41.924;25.562;2023-03-01T10:12:25;100217.09;;;7.78;83.76
54900;BME280;40801;41.924;25.562;2023-03-01T10:14:58;100219.28;;;7.87;83.53
54900;BME280;40801;41.924;25.562;2023-03-01T10:19:54;100220.06;;;7.87;83.52
54900;BME280;40801;41.924;25.562;2023-03-01T10:22:24;100222.50;;;7.99;82.70
54900;BME280;40801;41.924;25.562;2023-03-01T10:24:54;100217.66;;;8.01;83.07
54900;BME280;40801;41.924;25.562;2023-03-01T10:27:29;100216.09;;;8.10;82.96
54900;BME280;40801;41.924;25.562;2023-03-01T10:32:49;100219.81;;;7.99;83.03
54900;BME280;40801;41.924;25.562;2023-03-01T10:35:25;100224.38;;;7.83;83.29
54900;BME280;40801;41.924;25.562;2023-03-01T10:40:22;100230.81;;;7.82;83.78
54900;BME280;40801;41.924;25.562;2023-03-01T10:42:49;100220.63;;;7.89;83.07
54900;BME280;40801;41.924;25.562;2023-03-01T10:45:16;100220.63;;;7.84;83.37
54900;BME280;40801;41.924;25.562;2023-03-01T10:47:42;100211.22;;;7.87;83.28
54900;BME280;40801;41.924;25.562;2023-03-01T10:50:19;100215.19;;;7.74;83.80
54900;BME280;40801;41.924;25.562;2023-03-01T10:52:57;100214.16;;;7.85;83.36
54900;BME280;40801;41.924;25.562;2023-03-01T10:55:42;100202.91;;;7.93;83.61
54900;BME280;40801;41.924;25.562;2023-03-01T11:00:46;100207.72;;;7.96;82.87
54900;BME280;40801;41.924;25.562;2023-03-01T11:03:15;100206.16;;;8.11;82.58
54900;BME280;40801;41.924;25.562;2023-03-01T11:11:19;100198.06;;;7.95;83.27
54900;BME280;40801;41.924;25.562;2023-03-01T11:18:58;100184.09;;;8.03;83.76
54900;BME280;40801;41.924;25.562;2023-03-01T11:21:25;100174.72;;;8.11;83.44
54900;BME280;40801;41.924;25.562;2023-03-01T11:23:53;100184.38;;;8.17;82.97
54900;BME280;40801;41.924;25.562;2023-03-01T11:26:19;100172.81;;;8.17;82.70
54900;BME280;40801;41.924;25.562;2023-03-01T11:28:50;100165.81;;;8.05;82.44
54900;BME280;40801;41.924;25.562;2023-03-01T11:31:17;100166.09;;;8.19;82.27
54900;BME280;40801;41.924;25.562;2023-03-01T11:34:05;100165.03;;;8.10;82.03
54900;BME280;40801;41.924;25.562;2023-03-01T11:36:36;100155.63;;;7.82;83.75
54900;BME280;40801;41.924;25.562;2023-03-01T11:42:11;100159.41;;;8.12;83.07
54900;BME280;40801;41.924;25.562;2023-03-01T11:44:38;100152.41;;;8.21;82.72
54900;BME280;40801;41.924;25.562;2023-03-01T11:58:46;100144.88;;;8.28;82.47
54900;BME280;40801;41.924;25.562;2023-03-01T12:09:42;100130.63;;;8.22;83.03
54900;BME280;40801;41.924;25.562;2023-03-01T12:12:31;100127.16;;;8.22;82.07
54900;BME280;40801;41.924;25.562;2023-03-01T12:15:37;100126.34;;;8.16;82.48
54900;BME280;40801;41.924;25.562;2023-03-01T12:18:12;100127.69;;;8.14;83.20
54900;BME280;40801;41.924;25.562;2023-03-01T12:26:26;100141.91;;;8.24;82.50
54900;BME280;40801;41.924;25.562;2023-03-01T12:32:18;100142.47;;;8.11;82.14
54900;BME280;40801;41.924;25.562;2023-03-01T12:46:07;100129.84;;;8.17;83.25
54900;BME280;40801;41.924;25.562;2023-03-01T12:48:58;100130.91;;;8.26;82.94
54900;BME280;40801;41.924;25.562;2023-03-01T12:51:26;100133.59;;;8.16;83.42
54900;BME280;40801;41.924;25.562;2023-03-01T12:53:55;100136.03;;;8.17;83.29
54900;BME280;40801;41.924;25.562;2023-03-01T12:56:25;100119.63;;;8.24;83.73
54900;BME280;40801;41.924;25.562;2023-03-01T13:01:30;100124.72;;;8.20;84.25
54900;BME280;40801;41.924;25.562;2023-03-01T13:17:54;100122.06;;;8.41;82.52
54900;BME280;40801;41.924;25.562;2023-03-01T13:30:58;100121.75;;;8.47;82.34
54900;BME280;40801;41.924;25.562;2023-03-01T13:35:52;100099.19;;;8.48;82.21
54900;BME280;40801;41.924;25.562;2023-03-01T13:38:45;100108.84;;;8.54;82.21
54900;BME280;40801;41.924;25.562;2023-03-01T13:41:15;100105.06;;;8.55;82.34
54900;BME280;40801;41.924;25.562;2023-03-01T13:43:44;100105.34;;;8.49;82.31
54900;BME280;40801;41.924;25.562;2023-03-01T13:46:16;100113.44;;;8.49;82.16
54900;BME280;40801;41.924;25.562;2023-03-01T13:48:45;100113.97;;;8.46;82.14
54900;BME280;40801;41.924;25.562;2023-03-01T13:51:12;100111.31;;;8.41;82.26
54900;BME280;40801;41.924;25.562;2023-03-01T13:53:44;100125.81;;;8.19;82.18
54900;BME280;40801;41.924;25.562;2023-03-01T13:56:27;100131.72;;;8.21;83.07
54900;BME280;40801;41.924;25.562;2023-03-01T13:58:58;100133.06;;;8.19;82.75
54900;BME280;40801;41.924;25.562;2023-03-01T14:01:31;100127.44;;;8.15;82.98
54900;BME280;40801;41.924;25.562;2023-03-01T14:03:58;100129.03;;;8.11;83.11
54900;BME280;40801;41.924;25.562;2023-03-01T14:06:29;100131.19;;;8.14;83.24
54900;BME280;40801;41.924;25.562;2023-03-01T14:09:36;100131.47;;;8.13;82.97
54900;BME280;40801;41.924;25.562;2023-03-01T14:12:12;100135.19;;;8.06;83.65
54900;BME280;40801;41.924;25.562;2023-03-01T14:19:57;100133.88;;;7.99;83.78
54900;BME280;40801;41.924;25.562;2023-03-01T14:22:27;100143.00;;;7.83;84.20
54900;BME280;40801;41.924;25.562;2023-03-01T14:25:04;100146.78;;;7.87;84.49
54900;BME280;40801;41.924;25.562;2023-03-01T14:27:38;100135.22;;;7.86;83.55
54900;BME280;40801;41.924;25.562;2023-03-01T14:30:19;100142.19;;;7.87;83.64
54900;BME280;40801;41.924;25.562;2023-03-01T14:32:56;100141.41;;;7.87;84.75
54900;BME280;40801;41.924;25.562;2023-03-01T14:35:30;100137.91;;;7.91;84.45
54900;BME280;40801;41.924;25.562;2023-03-01T14:37:56;100139.50;;;8.02;83.63
54900;BME280;40801;41.924;25.562;2023-03-01T14:40:25;100137.09;;;8.06;84.00
54900;BME280;40801;41.924;25.562;2023-03-01T14:42:52;100140.84;;;7.80;83.94
54900;BME280;40801;41.924;25.562;2023-03-01T14:45:19;100141.94;;;7.84;85.27
54900;BME280;40801;41.924;25.562;2023-03-01T14:47:45;100142.19;;;7.92;84.54
54900;BME280;40801;41.924;25.562;2023-03-01T14:50:32;100149.16;;;8.08;84.43
54900;BME280;40801;41.924;25.562;2023-03-01T14:53:02;100144.34;;;7.90;84.71
54900;BME280;40801;41.924;25.562;2023-03-01T14:55:34;100136.84;;;7.92;84.23
54900;BME280;40801;41.924;25.562;2023-03-01T14:58:03;100136.03;;;7.92;83.70
54900;BME280;40801;41.924;25.562;2023-03-01T15:00:31;100134.13;;;8.02;83.86